Terminal Aerodrome Forecast
Issued by NWS

Home | Current Version | Previous Version | Graphics & Text | Print | Product List | Glossary On
Versions: 1 2 3 4 5 6 7 8 9 10 11 12 13 14 15 16 17 18 19 20 21 22 23 24 25 26 27 28 29 30 31
000
FTUS43 KLOT 250543
TAFDPA
TAF
KDPA 250543Z 2506/2606 16015KT 5SM -RA BR SCT010 OVC040
      WS020/16050KT
     FM250700 19015KT 4SM -RA BR BKN010 OVC020 WS020/17050KT
     FM251100 21014KT 5SM BR VCSH BKN004 OVC015
     FM251500 24014G23KT P6SM SCT005 BKN015
     FM252200 26012KT P6SM SCT015 BKN100
     FM260200 29007KT P6SM VCSH BKN060=

USA.gov is the U.S. government's official web portal to all federal, state and local government web resources and services.